Time;durP1;ratioP1;P1;durP2;ratioP2;P2;SDS_P1;SDS_P2;PMS_P1;PMS_P2;Temp;Humidity;BMP_temperature;BMP_pressure;BME280_temperature;BME280_humidity;BME280_pressure;Samples;Min_cycle;Max_cycle;Signal;HPM_P1;HPM_P2
2021/04/11 00:03:45;;;;;;;;;;;4.50;99.90;;;;;;10478028;28;19925;-93
2021/04/11 00:08:46;;;;;;;;;;;5.10;99.90;;;;;;10477407;28;19925;-94
2021/04/11 00:13:49;;;;;;;;;;;4.00;99.90;;;;;;10476877;28;19931;-93
2021/04/11 00:18:50;;;;;;;;;;;5.20;99.90;;;;;;10494235;28;19931;-93
2021/04/11 00:23:52;;;;;;;;;;;4.00;99.90;;;;;;10494064;28;20290;-94
2021/04/11 00:28:53;;;;;;;;;;;4.00;99.90;;;;;;10477325;28;20017;-94
2021/04/11 00:34:00;;;;;;;;;;;3.90;99.90;;;;;;10477615;27;20359;-94
2021/04/11 00:39:02;;;;;;;;;;;3.90;99.90;;;;;;10476582;28;20290;-94
2021/04/11 00:44:04;;;;;;;;;;;3.90;99.90;;;;;;10484694;28;19931;-94
2021/04/11 00:49:08;;;;;;;;;;;4.00;99.90;;;;;;10434566;28;20502;-93
2021/04/11 00:54:10;;;;;;;;;;;3.90;99.90;;;;;;10464116;28;20027;-93
2021/04/11 00:59:12;;;;;;;;;;;3.80;99.90;;;;;;10497255;28;19931;-94
2021/04/11 01:04:14;;;;;;;;;;;4.10;99.90;;;;;;10487882;28;20015;-94
2021/04/11 01:09:18;;;;;;;;;;;3.90;99.90;;;;;;10441561;28;20375;-93
2021/04/11 01:14:20;;;;;;;;;;;3.80;99.90;;;;;;10458782;28;20008;-93
2021/04/11 01:19:23;;;;;;;;;;;3.70;99.90;;;;;;10458718;28;19930;-93
2021/04/11 01:24:37;;;;;;;;;;;3.70;99.90;;;;;;10458621;28;19953;-94
2021/04/11 01:29:40;;;;;;;;;;;3.70;99.90;;;;;;10491674;28;20017;-93
2021/04/11 01:34:42;;;;;;;;;;;3.60;99.90;;;;;;10499498;27;19924;-94
2021/04/11 01:39:45;;;;;;;;;;;3.70;99.90;;;;;;10498010;28;19965;-94
2021/04/11 01:44:48;;;;;;;;;;;3.70;99.90;;;;;;10458016;28;19925;-94
2021/04/11 01:49:49;;;;;;;;;;;3.50;99.90;;;;;;10463412;28;19929;-92
2021/04/11 01:54:50;;;;;;;;;;;3.50;99.90;;;;;;10478144;28;19987;-94
2021/04/11 01:59:59;;;;;;;;;;;3.40;99.90;;;;;;10498701;28;19931;-93
2021/04/11 02:05:00;;;;;;;;;;;3.30;99.90;;;;;;10498599;28;19957;-94
2021/04/11 02:10:04;;;;;;;;;;;3.40;99.90;;;;;;10481710;28;19924;-94
2021/04/11 02:15:07;;;;;;;;;;;3.40;99.90;;;;;;10498010;28;19924;-93
2021/04/11 02:20:10;;;;;;;;;;;3.20;99.90;;;;;;10497946;28;19931;-94
2021/04/11 02:25:17;;;;;;;;;;;3.30;99.90;;;;;;10479113;28;19997;-93
2021/04/11 02:30:20;;;;;;;;;;;3.20;99.90;;;;;;10457738;28;20333;-94
2021/04/11 02:35:23;;;;;;;;;;;3.20;99.90;;;;;;10455487;28;19925;-94
2021/04/11 02:40:27;;;;;;;;;;;3.10;99.90;;;;;;10456100;28;20015;-94
2021/04/11 02:45:31;;;;;;;;;;;3.20;99.90;;;;;;10456096;28;19932;-93
2021/04/11 02:50:33;;;;;;;;;;;3.20;99.90;;;;;;10455674;28;19931;-93
2021/04/11 02:55:36;;;;;;;;;;;3.30;99.90;;;;;;10456829;28;19935;-93
2021/04/11 03:00:39;;;;;;;;;;;3.20;99.90;;;;;;10454671;28;19925;-93
2021/04/11 03:05:41;;;;;;;;;;;3.20;99.90;;;;;;10455483;28;19975;-94
2021/04/11 03:10:42;;;;;;;;;;;3.80;99.90;;;;;;10437970;28;20375;-94
2021/04/11 03:15:44;;;;;;;;;;;4.10;99.90;;;;;;10455787;28;19939;-94
2021/04/11 03:20:45;;;;;;;;;;;4.20;99.90;;;;;;10437955;28;19928;-94
2021/04/11 03:25:50;;;;;;;;;;;3.30;99.90;;;;;;10454305;28;19925;-94
2021/04/11 03:30:51;;;;;;;;;;;4.30;99.90;;;;;;10454308;28;19928;-94
2021/04/11 03:35:52;;;;;;;;;;;3.30;99.90;;;;;;10557679;22;19923;-91
2021/04/11 03:40:55;;;;;;;;;;;3.30;99.90;;;;;;10684436;27;20009;-92
2021/04/11 03:45:57;;;;;;;;;;;3.30;99.90;;;;;;10656923;27;19966;-92
2021/04/11 03:51:00;;;;;;;;;;;4.70;99.90;;;;;;10652851;27;19978;-92
2021/04/11 03:56:04;;;;;;;;;;;3.40;99.90;;;;;;10653214;27;19923;-92
2021/04/11 04:01:12;;;;;;;;;;;3.40;99.90;;;;;;10652638;27;20346;-92
2021/04/11 04:06:18;;;;;;;;;;;3.40;99.90;;;;;;10652425;27;20043;-92
2021/04/11 04:11:55;;;;;;;;;;;3.30;99.90;;;;;;10652451;27;20285;-93
2021/04/11 04:17:16;;;;;;;;;;;3.30;99.90;;;;;;10535810;27;20377;-92
2021/04/11 04:22:25;;;;;;;;;;;3.30;99.90;;;;;;10615300;27;19923;-92
2021/04/11 04:27:26;;;;;;;;;;;4.40;99.90;;;;;;10651268;27;19927;-92
2021/04/11 04:32:31;;;;;;;;;;;3.80;99.90;;;;;;10650033;27;20001;-92
2021/04/11 04:37:35;;;;;;;;;;;3.40;99.90;;;;;;10521139;27;20455;-93
2021/04/11 04:42:36;;;;;;;;;;;3.40;99.90;;;;;;10521666;27;19935;-92
2021/04/11 04:47:52;;;;;;;;;;;3.30;99.90;;;;;;10520720;28;19928;-93
2021/04/11 04:53:03;;;;;;;;;;;3.40;99.90;;;;;;10521385;28;19971;-92
2021/04/11 04:58:09;;;;;;;;;;;3.40;99.90;;;;;;10521142;28;20003;-92
2021/04/11 05:03:13;;;;;;;;;;;3.40;99.90;;;;;;10452498;28;19925;-92
2021/04/11 05:08:17;;;;;;;;;;;3.40;99.90;;;;;;10520980;28;20008;-92
2021/04/11 05:13:21;;;;;;;;;;;3.40;99.90;;;;;;10520456;28;19972;-92
2021/04/11 05:18:27;;;;;;;;;;;4.20;99.90;;;;;;10520860;28;19925;-92
2021/04/11 05:23:46;;;;;;;;;;;3.40;99.90;;;;;;10520825;28;19983;-92
2021/04/11 05:28:53;;;;;;;;;;;3.50;99.90;;;;;;10521252;28;20266;-92
2021/04/11 05:33:54;;;;;;;;;;;3.60;99.90;;;;;;10530455;27;19925;-91
2021/04/11 05:39:00;;;;;;;;;;;3.50;99.90;;;;;;10597819;28;19927;-93
2021/04/11 05:44:05;;;;;;;;;;;3.50;99.90;;;;;;10628257;27;19930;-92
2021/04/11 05:49:18;;;;;;;;;;;3.60;99.90;;;;;;10615396;27;19924;-92
2021/04/11 05:54:33;;;;;;;;;;;3.60;99.90;;;;;;10615722;27;19930;-92
2021/04/11 05:59:39;;;;;;;;;;;3.60;99.90;;;;;;10618875;27;19923;-92
2021/04/11 06:04:40;;;;;;;;;;;3.70;99.90;;;;;;10683009;27;19923;-92
2021/04/11 06:09:47;;;;;;;;;;;3.80;99.90;;;;;;10658783;27;19990;-92
2021/04/11 06:15:08;;;;;;;;;;;3.70;99.90;;;;;;10675626;27;20022;-92
2021/04/11 06:20:10;;;;;;;;;;;3.90;99.90;;;;;;10657410;27;19924;-91
2021/04/11 06:25:27;;;;;;;;;;;3.90;99.90;;;;;;10642116;27;19929;-92
2021/04/11 06:30:29;;;;;;;;;;;4.00;99.90;;;;;;10656514;27;19987;-92
2021/04/11 06:35:52;;;;;;;;;;;4.00;99.90;;;;;;10652666;27;19923;-92
2021/04/11 06:41:06;;;;;;;;;;;3.90;99.90;;;;;;10656040;27;19923;-92
2021/04/11 06:46:17;;;;;;;;;;;3.80;99.90;;;;;;10656153;27;20014;-92
2021/04/11 06:51:24;;;;;;;;;;;3.80;99.90;;;;;;10656297;27;19929;-92
2021/04/11 06:56:31;;;;;;;;;;;3.80;99.90;;;;;;10654549;27;19930;-92
2021/04/11 07:01:33;;;;;;;;;;;3.80;99.90;;;;;;10660981;27;19927;-92
2021/04/11 07:06:53;;;;;;;;;;;4.30;99.90;;;;;;10662346;27;19930;-92
2021/04/11 07:12:13;;;;;;;;;;;4.20;99.90;;;;;;10660627;27;20009;-92
2021/04/11 07:17:15;;;;;;;;;;;4.20;99.90;;;;;;10660600;27;19923;-91
2021/04/11 07:22:35;;;;;;;;;;;4.40;99.90;;;;;;10660404;27;19973;-92
2021/04/11 07:27:55;;;;;;;;;;;4.30;99.90;;;;;;10662984;27;19929;-92
2021/04/11 07:33:17;;;;;;;;;;;4.30;99.90;;;;;;10678485;27;19923;-92
2021/04/11 07:38:34;;;;;;;;;;;4.50;99.90;;;;;;10658437;27;19975;-91
2021/04/11 07:43:53;;;;;;;;;;;4.80;99.90;;;;;;10662911;27;19935;-91
2021/04/11 07:49:06;;;;;;;;;;;4.70;99.90;;;;;;10661625;27;19929;-92
2021/04/11 07:54:29;;;;;;;;;;;4.60;99.90;;;;;;10678598;27;20348;-93
2021/04/11 07:59:36;;;;;;;;;;;4.70;99.90;;;;;;10660196;27;20404;-92
2021/04/11 08:04:57;;;;;;;;;;;4.80;99.90;;;;;;10660456;27;19923;-93
2021/04/11 08:10:08;;;;;;;;;;;4.50;99.90;;;;;;10659816;27;19923;-93
2021/04/11 08:15:09;;;;;;;;;;;4.50;99.90;;;;;;10617842;27;19929;-93
2021/04/11 08:20:19;;;;;;;;;;;4.40;99.90;;;;;;10634526;27;20293;-92
2021/04/11 08:25:39;;;;;;;;;;;4.30;99.90;;;;;;10612272;27;19924;-94
2021/04/11 08:30:47;;;;;;;;;;;4.40;99.90;;;;;;10639937;27;19945;-94
2021/04/11 08:35:59;;;;;;;;;;;4.60;99.90;;;;;;10647008;27;19957;-93
2021/04/11 08:41:12;;;;;;;;;;;4.60;99.90;;;;;;10649463;27;20381;-93
2021/04/11 08:46:22;;;;;;;;;;;4.60;99.90;;;;;;10651278;27;19923;-93
2021/04/11 08:51:27;;;;;;;;;;;4.60;99.90;;;;;;10668804;27;20424;-92
2021/04/11 08:56:34;;;;;;;;;;;4.60;99.90;;;;;;10651245;27;19930;-92
2021/04/11 09:01:48;;;;;;;;;;;4.70;99.90;;;;;;10651248;27;20014;-92
2021/04/11 09:07:08;;;;;;;;;;;4.90;99.90;;;;;;10646170;27;19923;-93
2021/04/11 09:12:15;;;;;;;;;;;5.50;99.90;;;;;;10617452;27;19937;-94
2021/04/11 09:17:23;;;;;;;;;;;5.80;99.90;;;;;;10668244;27;19927;-93
2021/04/11 09:22:40;;;;;;;;;;;6.00;99.90;;;;;;10659028;27;19930;-94
2021/04/11 09:28:05;;;;;;;;;;;6.10;99.90;;;;;;10659994;27;20259;-94
2021/04/11 09:33:07;;;;;;;;;;;6.10;99.90;;;;;;10650469;27;20006;-94
2021/04/11 09:38:15;;;;;;;;;;;5.90;99.90;;;;;;10527952;27;19952;-94
2021/04/11 09:43:35;;;;;;;;;;;5.50;99.90;;;;;;10528281;27;19928;-93
2021/04/11 09:48:55;;;;;;;;;;;5.80;99.90;;;;;;10526579;27;20395;-94
2021/04/11 09:54:12;;;;;;;;;;;6.20;99.90;;;;;;10528454;27;19964;-93
2021/04/11 09:59:23;;;;;;;;;;;6.50;99.90;;;;;;10458475;28;20367;-93
2021/04/11 10:04:43;;;;;;;;;;;6.60;99.90;;;;;;10530724;27;19974;-94
2021/04/11 10:09:50;;;;;;;;;;;6.40;99.90;;;;;;10526436;27;19985;-93
2021/04/11 10:15:15;;;;;;;;;;;6.50;99.90;;;;;;10526970;27;19925;-94
2021/04/11 10:20:19;;;;;;;;;;;6.60;99.90;;;;;;10527846;27;19929;-93
2021/04/11 10:25:29;;;;;;;;;;;6.80;99.90;;;;;;10526492;27;19931;-93
2021/04/11 10:30:30;;;;;;;;;;;6.80;99.90;;;;;;10521909;27;20408;-94
2021/04/11 10:35:44;;;;;;;;;;;6.40;99.90;;;;;;10558071;27;19923;-94
2021/04/11 10:40:57;;;;;;;;;;;6.20;99.90;;;;;;10656423;27;19923;-92
2021/04/11 10:46:04;;;;;;;;;;;6.30;99.90;;;;;;10653173;27;19967;-93
2021/04/11 10:51:44;;;;;;;;;;;6.60;99.90;;;;;;10655733;27;19931;-93
2021/04/11 10:56:56;;;;;;;;;;;7.10;99.90;;;;;;10557877;28;20003;-94
2021/04/11 11:02:10;;;;;;;;;;;7.00;99.90;;;;;;10633521;27;19923;-93
2021/04/11 11:07:37;;;;;;;;;;;6.60;99.90;;;;;;10653720;27;19930;-93
2021/04/11 11:12:41;;;;;;;;;;;6.10;99.90;;;;;;10638927;27;20021;-94
2021/04/11 11:17:46;;;;;;;;;;;6.30;99.90;;;;;;10653742;27;19962;-93
2021/04/11 11:22:58;;;;;;;;;;;6.80;99.90;;;;;;10653124;27;19924;-93
2021/04/11 11:28:29;;;;;;;;;;;6.60;99.90;;;;;;10653248;27;19927;-93
2021/04/11 11:33:49;;;;;;;;;;;7.50;99.90;;;;;;10653197;27;19928;-93
2021/04/11 11:39:01;;;;;;;;;;;8.20;99.90;;;;;;10516791;27;20430;-93
2021/04/11 11:44:21;;;;;;;;;;;7.30;99.90;;;;;;10522554;27;20240;-93
2021/04/11 11:49:39;;;;;;;;;;;6.80;99.90;;;;;;10452467;28;19939;-93
2021/04/11 11:54:46;;;;;;;;;;;6.80;99.90;;;;;;10522355;27;19929;-93
2021/04/11 12:00:04;;;;;;;;;;;7.20;99.90;;;;;;10523028;27;20015;-93
2021/04/11 12:05:13;;;;;;;;;;;7.60;99.90;;;;;;10570588;23;19924;-88
2021/04/11 12:10:53;;;;;;;;;;;7.10;99.90;;;;;;10565107;28;19931;-89
2021/04/11 12:15:57;;;;;;;;;;;6.70;99.90;;;;;;10405269;28;19931;-88
2021/04/11 12:21:10;;;;;;;;;;;7.00;99.90;;;;;;10494603;28;19924;-88
2021/04/11 12:26:13;;;;;;;;;;;6.90;99.90;;;;;;10555305;27;19977;-88
2021/04/11 12:31:33;;;;;;;;;;;8.00;99.90;;;;;;10565222;28;19924;-89
2021/04/11 12:36:44;;;;;;;;;;;8.10;99.90;;;;;;10563679;27;19927;-88
2021/04/11 12:42:00;;;;;;;;;;;8.00;99.90;;;;;;10564588;28;20041;-88
2021/04/11 12:47:11;;;;;;;;;;;7.80;99.90;;;;;;10563386;28;20042;-88
2021/04/11 12:52:20;;;;;;;;;;;7.40;99.90;;;;;;10561502;28;19924;-88
2021/04/11 12:57:23;;;;;;;;;;;7.40;99.90;;;;;;10525572;28;20294;-88
2021/04/11 13:02:30;;;;;;;;;;;7.00;99.90;;;;;;10547561;28;20275;-88
2021/04/11 13:07:39;;;;;;;;;;;6.80;99.90;;;;;;10562324;28;19966;-88
2021/04/11 13:12:53;;;;;;;;;;;6.80;99.90;;;;;;10572697;28;19931;-88
2021/04/11 13:18:13;;;;;;;;;;;6.60;99.90;;;;;;10572667;28;19923;-88
2021/04/11 13:23:21;;;;;;;;;;;7.20;99.90;;;;;;10570112;27;19932;-88
2021/04/11 13:28:24;;;;;;;;;;;7.40;99.90;;;;;;10586108;28;19935;-88
2021/04/11 13:33:46;;;;;;;;;;;7.30;99.90;;;;;;10571831;28;20002;-87
2021/04/11 13:38:57;;;;;;;;;;;8.40;99.90;;;;;;10590020;27;19967;-88
2021/04/11 13:44:17;;;;;;;;;;;7.30;99.90;;;;;;10570863;28;19924;-88
2021/04/11 13:49:25;;;;;;;;;;;7.90;99.90;;;;;;10567279;28;19932;-88
2021/04/11 13:54:36;;;;;;;;;;;9.60;99.90;;;;;;10569782;28;19967;-88
2021/04/11 13:59:39;;;;;;;;;;;8.80;99.90;;;;;;10583427;27;19924;-88
2021/04/11 14:04:50;;;;;;;;;;;8.50;99.90;;;;;;10568574;28;19946;-89
2021/04/11 14:10:07;;;;;;;;;;;8.50;99.90;;;;;;10562822;27;20006;-88
2021/04/11 14:15:13;;;;;;;;;;;8.20;99.90;;;;;;10569376;27;19934;-89
2021/04/11 14:20:23;;;;;;;;;;;8.20;99.90;;;;;;10563083;28;19923;-89
2021/04/11 14:25:30;;;;;;;;;;;8.00;99.90;;;;;;10569643;28;20384;-89
2021/04/11 14:30:37;;;;;;;;;;;8.10;99.90;;;;;;10569547;28;19963;-88
2021/04/11 14:35:43;;;;;;;;;;;7.60;99.90;;;;;;10562922;27;20790;-88
2021/04/11 14:40:58;;;;;;;;;;;7.60;99.90;;;;;;10584175;28;20354;-88
2021/04/11 14:46:01;;;;;;;;;;;8.10;99.90;;;;;;10565619;28;19928;-89
2021/04/11 14:51:26;;;;;;;;;;;8.30;99.90;;;;;;10524335;28;19924;-89
2021/04/11 14:56:38;;;;;;;;;;;8.20;99.90;;;;;;10516036;28;20029;-88
2021/04/11 15:01:44;;;;;;;;;;;7.80;99.90;;;;;;10540706;28;20397;-89
2021/04/11 15:07:04;;;;;;;;;;;7.90;99.90;;;;;;10568794;28;20314;-88
2021/04/11 15:12:12;;;;;;;;;;;8.20;99.90;;;;;;10563325;27;19928;-88
2021/04/11 15:17:13;;;;;;;;;;;8.10;99.60;;;;;;10542106;28;19936;-89
2021/04/11 15:22:18;;;;;;;;;;;8.00;99.90;;;;;;10542288;28;19931;-88
2021/04/11 15:27:23;;;;;;;;;;;8.10;99.90;;;;;;10552665;28;19973;-89
2021/04/11 15:32:34;;;;;;;;;;;8.30;99.90;;;;;;10566398;28;19930;-89
2021/04/11 15:37:40;;;;;;;;;;;8.20;99.30;;;;;;10584855;28;19931;-88
2021/04/11 15:42:41;;;;;;;;;;;8.00;98.70;;;;;;10566854;28;20031;-87
2021/04/11 15:47:47;;;;;;;;;;;8.00;97.80;;;;;;10583958;28;20413;-87
2021/04/11 15:52:57;;;;;;;;;;;8.00;92.00;;;;;;10563715;27;20030;-88
2021/04/11 15:58:07;;;;;;;;;;;8.10;93.80;;;;;;10563151;28;19930;-88
2021/04/11 16:03:08;;;;;;;;;;;7.90;94.00;;;;;;10559319;27;20610;-88
2021/04/11 16:08:10;;;;;;;;;;;7.90;93.60;;;;;;10563077;28;19923;-88
2021/04/11 16:13:18;;;;;;;;;;;8.20;95.20;;;;;;10562386;28;20313;-88
2021/04/11 16:18:36;;;;;;;;;;;8.60;94.20;;;;;;10564936;28;20291;-88
2021/04/11 16:23:46;;;;;;;;;;;8.60;91.70;;;;;;10564435;28;19971;-88
2021/04/11 16:29:00;;;;;;;;;;;8.30;91.00;;;;;;10575900;28;19924;-88
2021/04/11 16:34:23;;;;;;;;;;;8.30;92.00;;;;;;10564100;28;19924;-87
2021/04/11 16:39:45;;;;;;;;;;;8.20;91.80;;;;;;10562703;28;20371;-84
2021/04/11 16:45:01;;;;;;;;;;;8.00;91.10;;;;;;10580695;28;19932;-86
2021/04/11 16:50:05;;;;;;;;;;;7.50;92.80;;;;;;10579948;28;20014;-86
2021/04/11 16:55:17;;;;;;;;;;;7.20;94.30;;;;;;10560423;28;20026;-87
2021/04/11 17:00:25;;;;;;;;;;;7.00;95.60;;;;;;10563509;28;19930;-87
2021/04/11 17:05:33;;;;;;;;;;;7.00;95.00;;;;;;10560703;28;20592;-87
2021/04/11 17:10:34;;;;;;;;;;;7.00;95.50;;;;;;10563908;28;19931;-87
2021/04/11 17:15:38;;;;;;;;;;;6.90;95.40;;;;;;10563092;28;20313;-87
2021/04/11 17:20:46;;;;;;;;;;;7.80;95.40;;;;;;10582123;28;19924;-87
2021/04/11 17:25:52;;;;;;;;;;;6.70;96.30;;;;;;10579306;28;19934;-87
2021/04/11 17:30:59;;;;;;;;;;;6.70;96.10;;;;;;10581280;28;19924;-87
2021/04/11 17:36:08;;;;;;;;;;;6.50;95.70;;;;;;10562550;28;20369;-87
2021/04/11 17:41:12;;;;;;;;;;;6.30;96.40;;;;;;10579838;28;20011;-87
2021/04/11 17:46:19;;;;;;;;;;;6.20;97.20;;;;;;10546908;28;19928;-87
2021/04/11 17:51:31;;;;;;;;;;;6.00;97.90;;;;;;10551971;27;19924;-87
2021/04/11 17:56:36;;;;;;;;;;;5.80;98.90;;;;;;10576060;27;19931;-87
2021/04/11 18:01:37;;;;;;;;;;;5.70;99.70;;;;;;10588726;28;19934;-87
2021/04/11 18:06:42;;;;;;;;;;;5.60;99.90;;;;;;10491907;23;20340;-89
2021/04/11 18:11:43;;;;;;;;;;;5.50;99.90;;;;;;10455161;28;20011;-90
2021/04/11 18:16:54;;;;;;;;;;;5.30;99.90;;;;;;10455225;28;19929;-89
2021/04/11 18:22:11;;;;;;;;;;;5.30;99.90;;;;;;10452464;28;20032;-90
2021/04/11 18:27:19;;;;;;;;;;;5.10;99.90;;;;;;10454657;28;20383;-90
2021/04/11 18:32:29;;;;;;;;;;;5.00;99.90;;;;;;10454884;28;19925;-89
2021/04/11 18:37:31;;;;;;;;;;;4.70;99.90;;;;;;10455662;28;19925;-90
2021/04/11 18:42:51;;;;;;;;;;;4.60;99.90;;;;;;10414873;28;19935;-90
2021/04/11 18:47:52;;;;;;;;;;;4.00;99.90;;;;;;10436044;28;20028;-90
2021/04/11 18:53:19;;;;;;;;;;;4.40;99.90;;;;;;10453119;28;20009;-89
2021/04/11 18:58:34;;;;;;;;;;;4.20;99.90;;;;;;10453645;28;19954;-90
2021/04/11 19:03:50;;;;;;;;;;;4.00;99.90;;;;;;10453880;28;20408;-90
2021/04/11 19:08:51;;;;;;;;;;;3.90;99.90;;;;;;10452653;28;20644;-89
2021/04/11 19:14:04;;;;;;;;;;;3.80;99.90;;;;;;10454129;28;19966;-90
2021/04/11 19:19:08;;;;;;;;;;;3.70;99.90;;;;;;10452604;28;20383;-89
2021/04/11 19:24:13;;;;;;;;;;;4.70;99.90;;;;;;10453618;28;20015;-90
2021/04/11 19:29:17;;;;;;;;;;;3.40;99.90;;;;;;10471412;27;19931;-91
2021/04/11 19:34:33;;;;;;;;;;;3.30;99.90;;;;;;10449826;28;19929;-90
2021/04/11 19:39:42;;;;;;;;;;;3.20;99.90;;;;;;10481749;27;20025;-91
2021/04/11 19:45:03;;;;;;;;;;;3.10;99.90;;;;;;10447176;28;20321;-91
2021/04/11 19:50:16;;;;;;;;;;;2.90;99.90;;;;;;10475233;27;19972;-90
2021/04/11 19:55:18;;;;;;;;;;;2.80;99.90;;;;;;10594098;27;19929;-91
2021/04/11 20:00:23;;;;;;;;;;;2.70;99.90;;;;;;10409092;28;19980;-91
2021/04/11 20:05:24;;;;;;;;;;;2.70;99.90;;;;;;10441016;28;20343;-91
2021/04/11 20:10:41;;;;;;;;;;;2.60;99.90;;;;;;10451524;28;19931;-91
2021/04/11 20:15:54;;;;;;;;;;;2.50;99.90;;;;;;10451859;28;20379;-89
2021/04/11 20:21:00;;;;;;;;;;;2.60;99.90;;;;;;10452867;28;19924;-89
2021/04/11 20:26:13;;;;;;;;;;;2.30;99.90;;;;;;10451345;28;20309;-89
2021/04/11 20:31:33;;;;;;;;;;;2.20;99.90;;;;;;10451126;28;20375;-89
2021/04/11 20:36:53;;;;;;;;;;;2.20;99.90;;;;;;10451260;28;19925;-89
2021/04/11 20:42:04;;;;;;;;;;;2.10;99.90;;;;;;10449188;28;19929;-88
2021/04/11 20:47:24;;;;;;;;;;;2.10;99.90;;;;;;10433145;28;19948;-88
2021/04/11 20:52:25;;;;;;;;;;;2.00;99.90;;;;;;10409325;28;20280;-88
2021/04/11 20:57:33;;;;;;;;;;;2.10;99.90;;;;;;10444394;28;19929;-89
2021/04/11 21:02:44;;;;;;;;;;;3.10;99.90;;;;;;10450292;28;19938;-89
2021/04/11 21:08:04;;;;;;;;;;;2.00;99.90;;;;;;10449368;28;19925;-88
2021/04/11 21:13:15;;;;;;;;;;;1.80;99.90;;;;;;10449484;28;20418;-89
2021/04/11 21:18:35;;;;;;;;;;;1.80;99.90;;;;;;10472087;27;20364;-88
2021/04/11 21:23:39;;;;;;;;;;;1.70;99.90;;;;;;10458218;28;19925;-89
2021/04/11 21:28:55;;;;;;;;;;;1.70;99.90;;;;;;10434417;27;19925;-89
2021/04/11 21:34:17;;;;;;;;;;;1.80;99.90;;;;;;10415817;28;19932;-89
2021/04/11 21:39:34;;;;;;;;;;;1.70;99.90;;;;;;10416709;28;19929;-89
2021/04/11 21:44:36;;;;;;;;;;;1.60;99.90;;;;;;10415345;28;20056;-89
2021/04/11 21:49:49;;;;;;;;;;;1.90;99.90;;;;;;10414735;28;19933;-89
2021/04/11 21:55:00;;;;;;;;;;;2.20;99.90;;;;;;10412272;28;19925;-89
2021/04/11 22:00:01;;;;;;;;;;;2.30;99.90;;;;;;10434837;27;20389;-89
2021/04/11 22:05:03;;;;;;;;;;;2.10;99.90;;;;;;10654102;27;19929;-89
2021/04/11 22:10:13;;;;;;;;;;;2.00;99.90;;;;;;10488701;27;19929;-89
2021/04/11 22:15:24;;;;;;;;;;;1.90;99.90;;;;;;10453888;28;19932;-89
2021/04/11 22:20:28;;;;;;;;;;;1.80;99.90;;;;;;10456309;28;20011;-89
2021/04/11 22:25:39;;;;;;;;;;;1.90;99.90;;;;;;10455099;28;19931;-90
2021/04/11 22:30:41;;;;;;;;;;;1.70;99.90;;;;;;10455478;28;19986;-89
2021/04/11 22:35:49;;;;;;;;;;;1.80;99.90;;;;;;10456182;27;19924;-89
2021/04/11 22:40:54;;;;;;;;;;;1.80;99.90;;;;;;10454077;28;20394;-89
2021/04/11 22:46:03;;;;;;;;;;;1.70;99.90;;;;;;10455384;28;20333;-89
2021/04/11 22:51:08;;;;;;;;;;;1.70;99.90;;;;;;10455058;28;20016;-89
2021/04/11 22:56:28;;;;;;;;;;;1.70;99.90;;;;;;10454831;28;19924;-90
2021/04/11 23:01:35;;;;;;;;;;;1.70;99.90;;;;;;10454270;28;19925;-89
2021/04/11 23:06:49;;;;;;;;;;;1.70;99.90;;;;;;10453062;28;19958;-89
2021/04/11 23:11:55;;;;;;;;;;;1.60;99.90;;;;;;10453799;28;20013;-89
2021/04/11 23:17:00;;;;;;;;;;;1.60;99.90;;;;;;10453552;28;19932;-89
2021/04/11 23:22:06;;;;;;;;;;;1.60;99.90;;;;;;10453511;28;20344;-88
2021/04/11 23:27:17;;;;;;;;;;;1.70;99.90;;;;;;10453729;28;19925;-89
2021/04/11 23:32:32;;;;;;;;;;;1.70;99.90;;;;;;10452459;28;20387;-88
2021/04/11 23:37:35;;;;;;;;;;;1.60;99.90;;;;;;10452108;28;19978;-88
2021/04/11 23:42:52;;;;;;;;;;;1.70;99.90;;;;;;10452743;28;20012;-88
2021/04/11 23:47:59;;;;;;;;;;;1.60;99.90;;;;;;10452539;28;19925;-88
2021/04/11 23:53:08;;;;;;;;;;;1.70;99.90;;;;;;10452752;28;19933;-88
2021/04/11 23:58:18;;;;;;;;;;;1.70;99.90;;;;;;10452669;28;19979;-88
